createdAt,value
2022-12-03T00:03:25.937Z,72.10
2022-12-03T00:08:29.474Z,72.10
2022-12-03T00:13:32.902Z,72.10
2022-12-03T00:18:37.677Z,72.00
2022-12-03T00:23:42.499Z,71.90
2022-12-03T00:28:46.108Z,71.80
2022-12-03T00:33:51.506Z,71.70
2022-12-03T00:38:54.908Z,71.60
2022-12-03T00:43:58.324Z,71.40
2022-12-03T00:49:03.338Z,72.00
2022-12-03T00:54:06.736Z,72.30
2022-12-03T00:59:10.240Z,72.30
2022-12-03T01:04:15.043Z,72.20
2022-12-03T01:09:18.464Z,72.00
2022-12-03T01:14:22.030Z,72.00
2022-12-03T01:19:26.990Z,71.90
2022-12-03T01:24:30.858Z,71.70
2022-12-03T01:29:34.293Z,72.40
2022-12-03T01:34:39.166Z,71.80
2022-12-03T01:39:43.226Z,71.70
2022-12-03T01:44:47.551Z,71.70
2022-12-03T01:49:55.530Z,71.70
2022-12-03T01:55:01.780Z,71.70
2022-12-03T02:00:06.428Z,71.60
2022-12-03T02:05:17.965Z,71.60
2022-12-03T02:10:26.524Z,71.80
2022-12-03T02:15:30.093Z,71.90
2022-12-03T02:20:39.937Z,71.80
2022-12-03T02:25:44.718Z,71.80
2022-12-03T02:30:48.202Z,71.80
2022-12-03T02:35:51.923Z,71.60
2022-12-03T02:41:00.471Z,71.80
2022-12-03T02:46:05.647Z,71.90
2022-12-03T02:51:11.181Z,72.40
2022-12-03T02:56:19.705Z,72.70
2022-12-03T03:01:23.313Z,72.80
2022-12-03T03:06:26.815Z,73.10
2022-12-03T03:11:31.910Z,73.10
2022-12-03T03:16:35.538Z,73.00
2022-12-03T03:21:38.991Z,73.20
2022-12-03T03:26:43.743Z,73.30
2022-12-03T03:31:48.271Z,73.30
2022-12-03T03:36:51.865Z,73.70
2022-12-03T03:41:56.722Z,74.10
2022-12-03T03:47:00.988Z,74.50
2022-12-03T03:52:04.965Z,74.50
2022-12-03T03:57:09.730Z,74.50
2022-12-03T04:02:20.164Z,74.60
2022-12-03T04:07:23.618Z,74.60
2022-12-03T04:12:45.754Z,74.50
2022-12-03T04:18:09.704Z,74.60
2022-12-03T04:23:13.523Z,74.70
2022-12-03T04:28:35.873Z,74.50
2022-12-03T04:33:56.727Z,74.60
2022-12-03T04:39:00.174Z,75.50
2022-12-03T04:44:22.230Z,74.60
2022-12-03T04:49:25.680Z,74.60
2022-12-03T04:54:29.678Z,74.60
2022-12-03T04:59:35.058Z,74.40
2022-12-03T05:04:39.017Z,74.30
2022-12-03T05:09:42.468Z,74.40
2022-12-03T05:14:47.235Z,74.40
2022-12-03T05:20:08.044Z,74.30
2022-12-03T05:25:11.692Z,74.30
2022-12-03T05:30:16.740Z,74.00
2022-12-03T05:35:20.133Z,73.90
2022-12-03T05:40:23.809Z,73.80
2022-12-03T05:45:30.886Z,74.30
2022-12-03T05:50:36.843Z,74.40
2022-12-03T05:55:40.410Z,74.60
2022-12-03T06:00:45.137Z,74.60
2022-12-03T06:05:48.530Z,74.70
2022-12-03T06:10:52.530Z,74.70
2022-12-03T06:15:57.338Z,74.60
2022-12-03T06:21:00.962Z,74.70
2022-12-03T06:26:04.427Z,74.60
2022-12-03T06:31:09.330Z,74.40
2022-12-03T06:36:13.642Z,74.30
2022-12-03T06:41:17.387Z,74.40
2022-12-03T06:46:22.229Z,74.60
2022-12-03T06:51:25.686Z,74.80
2022-12-03T06:56:35.060Z,74.70
2022-12-03T07:01:41.745Z,74.70
2022-12-03T07:06:45.220Z,74.70
2022-12-03T07:11:48.605Z,74.70
2022-12-03T07:16:53.320Z,74.50
2022-12-03T07:21:56.723Z,74.40
2022-12-03T07:27:00.104Z,74.20
2022-12-03T07:32:05.103Z,74.20
2022-12-03T07:37:08.613Z,73.90
2022-12-03T07:42:12.221Z,73.70
2022-12-03T07:47:17.181Z,73.60
2022-12-03T07:52:21.947Z,73.60
2022-12-03T07:57:25.358Z,73.70
2022-12-03T08:02:30.219Z,73.50
2022-12-03T08:07:33.782Z,73.50
2022-12-03T08:12:42.643Z,73.40
2022-12-03T08:17:51.480Z,73.40
2022-12-03T08:22:56.993Z,73.50
2022-12-03T08:28:09.031Z,73.50
2022-12-03T08:33:21.529Z,74.40
2022-12-03T08:38:26.258Z,73.60
2022-12-03T08:43:35.935Z,73.60
2022-12-03T08:48:45.437Z,73.50
2022-12-03T08:53:59.782Z,73.50
2022-12-03T08:59:22.495Z,73.90
2022-12-03T09:04:31.958Z,73.70
2022-12-03T09:09:35.577Z,74.20
2022-12-03T09:14:38.942Z,74.30
2022-12-03T09:19:46.195Z,74.10
2022-12-03T09:24:49.927Z,73.90
2022-12-03T09:29:53.386Z,74.20
2022-12-03T09:34:58.083Z,74.00
2022-12-03T09:40:01.510Z,74.00
2022-12-03T09:45:11.039Z,74.10
2022-12-03T09:50:18.067Z,74.20
2022-12-03T09:55:24.548Z,74.00
2022-12-03T10:00:30.767Z,73.60
2022-12-03T10:05:36.024Z,70.90
2022-12-03T10:10:41.543Z,72.00
2022-12-03T10:15:45.003Z,74.60
2022-12-03T10:20:50.717Z,76.50
2022-12-03T10:25:56.901Z,77.70
2022-12-03T10:31:01.233Z,78.60
2022-12-03T10:36:18.412Z,80.00
2022-12-03T10:41:24.141Z,80.70
2022-12-03T10:46:27.901Z,81.70
2022-12-03T10:51:32.738Z,82.50
2022-12-03T10:56:36.186Z,82.30
2022-12-03T11:01:39.676Z,82.30
2022-12-03T11:06:44.425Z,82.60
2022-12-03T11:11:48.220Z,81.40
2022-12-03T11:17:09.914Z,80.50
2022-12-03T11:22:47.238Z,79.80
2022-12-03T11:28:26.330Z,79.50
2022-12-03T11:33:31.733Z,79.00
2022-12-03T11:39:02.826Z,78.80
2022-12-03T11:44:31.496Z,78.90
2022-12-03T11:49:38.878Z,78.60
2022-12-03T11:54:43.894Z,78.20
2022-12-03T12:00:14.429Z,78.90
2022-12-03T12:05:25.713Z,78.70
2022-12-03T12:10:41.660Z,77.50
2022-12-03T12:15:45.751Z,77.30
2022-12-03T12:20:49.186Z,77.10
2022-12-03T12:25:54.472Z,77.00
2022-12-03T12:30:58.619Z,76.80
2022-12-03T12:36:06.676Z,76.70
2022-12-03T12:41:12.371Z,76.30
2022-12-03T12:46:46.653Z,76.60
2022-12-03T12:51:44.722Z,76.30
2022-12-03T12:56:51.358Z,76.10
2022-12-03T13:01:54.765Z,76.10
2022-12-03T13:06:58.162Z,75.90
2022-12-03T13:12:04.480Z,75.80
2022-12-03T13:17:15.420Z,75.70
2022-12-03T13:22:21.944Z,75.70
2022-12-03T13:27:30.555Z,75.50
2022-12-03T13:32:37.110Z,75.40
2022-12-03T13:37:40.616Z,75.40
2022-12-03T13:42:46.626Z,75.20
2022-12-03T13:47:54.232Z,75.20
2022-12-03T13:52:58.701Z,74.80
2022-12-03T13:58:03.851Z,75.20
2022-12-03T14:03:07.283Z,75.60
2022-12-03T14:08:10.705Z,75.20
2022-12-03T14:13:15.756Z,75.00
2022-12-03T14:18:19.268Z,74.90
2022-12-03T14:23:22.868Z,74.70
2022-12-03T14:28:27.626Z,75.30
2022-12-03T14:33:30.978Z,75.30
2022-12-03T14:38:34.360Z,75.20
2022-12-03T14:43:39.106Z,75.50
2022-12-03T14:48:42.456Z,75.40
2022-12-03T14:53:46.231Z,75.50
2022-12-03T14:58:51.103Z,75.60
2022-12-03T15:03:54.685Z,75.60
2022-12-03T15:08:58.091Z,75.40
2022-12-03T15:14:02.815Z,75.20
2022-12-03T15:19:06.240Z,76.70
2022-12-03T15:24:10.397Z,75.30
2022-12-03T15:29:15.151Z,75.60
2022-12-03T15:34:22.625Z,75.60
2022-12-03T15:39:26.629Z,75.60
2022-12-03T15:44:31.361Z,75.50
2022-12-03T15:49:34.740Z,75.50
2022-12-03T15:54:38.595Z,75.60
2022-12-03T15:59:43.763Z,75.40
2022-12-03T16:04:47.155Z,75.50
2022-12-03T16:09:50.983Z,75.80
2022-12-03T16:14:55.760Z,75.80
2022-12-03T16:19:59.163Z,76.10
2022-12-03T16:25:03.244Z,76.00
2022-12-03T16:30:09.682Z,75.90
2022-12-03T16:35:13.597Z,76.00
2022-12-03T16:40:17.013Z,75.90
2022-12-03T16:45:54.427Z,75.70
2022-12-03T16:50:58.840Z,75.70
2022-12-03T16:56:04.903Z,75.70
2022-12-03T17:01:11.163Z,75.60
2022-12-03T17:06:15.655Z,75.80
2022-12-03T17:11:20.116Z,75.90
2022-12-03T17:16:25.730Z,76.00
2022-12-03T17:21:34.859Z,75.60
2022-12-03T17:26:45.399Z,76.00
2022-12-03T17:31:51.157Z,76.00
2022-12-03T17:36:58.247Z,74.70
2022-12-03T17:42:01.680Z,77.00
2022-12-03T17:47:06.834Z,79.10
2022-12-03T17:52:10.227Z,80.40
2022-12-03T17:57:13.873Z,81.00
2022-12-03T18:02:19.002Z,81.90
2022-12-03T18:07:22.517Z,82.70
2022-12-03T18:12:25.985Z,83.60
2022-12-03T18:17:30.752Z,83.20
2022-12-03T18:22:34.625Z,84.10
2022-12-03T18:27:38.068Z,84.50
2022-12-03T18:32:42.835Z,84.30
2022-12-03T18:37:46.259Z,83.90
2022-12-03T18:42:49.732Z,83.50
2022-12-03T18:47:54.931Z,83.20
2022-12-03T18:52:58.543Z,82.40
2022-12-03T18:58:02.855Z,82.20
2022-12-03T19:03:07.870Z,82.20
2022-12-03T19:08:14.860Z,83.40
2022-12-03T19:13:18.589Z,83.00
2022-12-03T19:18:24.219Z,83.50
2022-12-03T19:23:32.579Z,84.50
2022-12-03T19:28:37.233Z,84.90
2022-12-03T19:33:46.325Z,84.70
2022-12-03T19:38:56.625Z,85.40
2022-12-03T19:44:07.823Z,85.60
2022-12-03T19:49:16.740Z,86.00
2022-12-03T19:54:30.744Z,86.50
2022-12-03T19:59:34.496Z,86.30
2022-12-03T20:04:41.474Z,86.30
2022-12-03T20:09:45.195Z,86.30
2022-12-03T20:14:52.151Z,86.40
2022-12-03T20:19:57.666Z,86.50
2022-12-03T20:25:03.711Z,86.50
2022-12-03T20:30:08.313Z,86.50
2022-12-03T20:35:13.088Z,86.60
2022-12-03T20:40:19.508Z,86.50
2022-12-03T20:45:27.011Z,86.40
2022-12-03T20:50:32.084Z,86.00
2022-12-03T20:55:38.001Z,85.50
2022-12-03T21:00:41.812Z,84.80
2022-12-03T21:05:47.592Z,84.50
2022-12-03T21:10:51.669Z,83.70
2022-12-03T21:16:04.853Z,82.90
2022-12-03T21:21:13.982Z,82.80
2022-12-03T21:26:19.649Z,82.90
2022-12-03T21:31:32.450Z,83.90
2022-12-03T21:36:37.335Z,83.30
2022-12-03T21:41:40.768Z,84.60
2022-12-03T21:47:09.562Z,85.20
2022-12-03T21:52:18.138Z,85.70
2022-12-03T21:57:21.776Z,86.70
2022-12-03T22:02:25.412Z,86.40
2022-12-03T22:07:33.087Z,85.90
2022-12-03T22:12:40.794Z,85.20
2022-12-03T22:17:44.207Z,84.60
2022-12-03T22:22:49.284Z,84.00
2022-12-03T22:27:52.761Z,83.80
2022-12-03T22:32:56.134Z,83.40
2022-12-03T22:38:00.899Z,82.90
2022-12-03T22:43:04.311Z,82.80
2022-12-03T22:48:08.167Z,82.50
2022-12-03T22:53:13.026Z,82.10
2022-12-03T22:58:16.447Z,82.20
2022-12-03T23:03:20.315Z,81.90
2022-12-03T23:08:25.134Z,81.60
2022-12-03T23:13:28.837Z,81.40
2022-12-03T23:18:32.488Z,82.30
2022-12-03T23:23:37.223Z,81.00
2022-12-03T23:28:42.948Z,80.80
2022-12-03T23:33:47.191Z,80.70
2022-12-03T23:38:52.028Z,80.70
2022-12-03T23:43:55.849Z,80.50
2022-12-03T23:49:00.260Z,80.20
2022-12-03T23:54:05.269Z,80.00
2022-12-03T23:59:08.683Z,80.00
